sensor_id;sensor_type;location;lat;lon;timestamp;pressure;altitude;pressure_sealevel;temperature;humidity
85499;BME280;75903;52.510;13.396;2024-02-21T00:01:03;101536.09;;;10.27;73.12
85499;BME280;75903;52.510;13.396;2024-02-21T00:03:29;101512.25;;;10.03;73.89
85499;BME280;75903;52.510;13.396;2024-02-21T00:05:54;101531.13;;;10.22;73.79
85499;BME280;75903;52.510;13.396;2024-02-21T00:08:19;101528.94;;;10.29;73.96
85499;BME280;75903;52.510;13.396;2024-02-21T00:10:45;101520.94;;;10.18;73.91
85499;BME280;75903;52.510;13.396;2024-02-21T00:13:10;101520.91;;;10.05;73.83
85499;BME280;75903;52.510;13.396;2024-02-21T00:15:35;101516.91;;;10.12;74.25
85499;BME280;75903;52.510;13.396;2024-02-21T00:18:01;101521.34;;;10.24;73.76
85499;BME280;75903;52.510;13.396;2024-02-21T00:20:26;101511.88;;;10.22;73.58
85499;BME280;75903;52.510;13.396;2024-02-21T00:22:52;101510.84;;;10.12;73.53
85499;BME280;75903;52.510;13.396;2024-02-21T00:25:17;101517.66;;;10.14;74.09
85499;BME280;75903;52.510;13.396;2024-02-21T00:27:43;101505.09;;;10.05;74.66
85499;BME280;75903;52.510;13.396;2024-02-21T00:30:09;101505.31;;;10.02;74.29
85499;BME280;75903;52.510;13.396;2024-02-21T00:32:34;101483.50;;;10.00;74.54
85499;BME280;75903;52.510;13.396;2024-02-21T00:35:00;101514.16;;;10.01;75.08
85499;BME280;75903;52.510;13.396;2024-02-21T00:37:26;101502.47;;;9.93;75.04
85499;BME280;75903;52.510;13.396;2024-02-21T00:39:52;101507.19;;;10.00;74.59
85499;BME280;75903;52.510;13.396;2024-02-21T00:42:18;101495.13;;;10.10;74.65
85499;BME280;75903;52.510;13.396;2024-02-21T00:44:43;101480.88;;;10.00;74.38
85499;BME280;75903;52.510;13.396;2024-02-21T00:47:10;101492.56;;;10.09;73.67
85499;BME280;75903;52.510;13.396;2024-02-21T00:49:35;101497.31;;;10.04;74.27
85499;BME280;75903;52.510;13.396;2024-02-21T00:52:00;101496.88;;;9.97;75.10
85499;BME280;75903;52.510;13.396;2024-02-21T00:54:26;101485.94;;;10.03;74.30
85499;BME280;75903;52.510;13.396;2024-02-21T00:56:51;101488.03;;;9.98;74.48
85499;BME280;75903;52.510;13.396;2024-02-21T00:59:16;101493.09;;;10.01;74.37
85499;BME280;75903;52.510;13.396;2024-02-21T01:01:42;101481.28;;;10.07;74.16
85499;BME280;75903;52.510;13.396;2024-02-21T01:04:08;101484.03;;;10.05;74.00
85499;BME280;75903;52.510;13.396;2024-02-21T01:06:34;101483.06;;;10.06;74.29
85499;BME280;75903;52.510;13.396;2024-02-21T01:08:59;101474.66;;;10.01;73.46
85499;BME280;75903;52.510;13.396;2024-02-21T01:11:25;101471.31;;;10.12;73.54
85499;BME280;75903;52.510;13.396;2024-02-21T01:13:50;101473.81;;;10.01;73.66
85499;BME280;75903;52.510;13.396;2024-02-21T01:16:15;101463.50;;;9.98;73.77
85499;BME280;75903;52.510;13.396;2024-02-21T01:18:41;101446.97;;;9.83;73.99
85499;BME280;75903;52.510;13.396;2024-02-21T01:21:07;101471.41;;;9.98;74.70
85499;BME280;75903;52.510;13.396;2024-02-21T01:23:33;101449.72;;;9.94;73.92
85499;BME280;75903;52.510;13.396;2024-02-21T01:25:59;101466.56;;;10.17;73.50
85499;BME280;75903;52.510;13.396;2024-02-21T01:28:24;101466.69;;;10.15;73.32
85499;BME280;75903;52.510;13.396;2024-02-21T01:30:49;101435.91;;;10.03;73.11
85499;BME280;75903;52.510;13.396;2024-02-21T01:33:15;101449.72;;;10.19;73.24
85499;BME280;75903;52.510;13.396;2024-02-21T01:35:41;101453.06;;;10.21;73.23
85499;BME280;75903;52.510;13.396;2024-02-21T01:38:06;101451.69;;;10.28;73.19
85499;BME280;75903;52.510;13.396;2024-02-21T01:40:31;101453.28;;;10.18;72.94
85499;BME280;75903;52.510;13.396;2024-02-21T01:42:57;101452.19;;;10.08;73.48
85499;BME280;75903;52.510;13.396;2024-02-21T01:45:22;101443.38;;;10.22;72.77
85499;BME280;75903;52.510;13.396;2024-02-21T01:47:49;101444.63;;;10.16;72.69
85499;BME280;75903;52.510;13.396;2024-02-21T01:50:15;101443.50;;;10.08;72.94
85499;BME280;75903;52.510;13.396;2024-02-21T01:52:42;101444.00;;;10.00;73.59
85499;BME280;75903;52.510;13.396;2024-02-21T01:55:10;101446.53;;;10.02;73.48
85499;BME280;75903;52.510;13.396;2024-02-21T01:57:36;101435.91;;;10.16;73.40
85499;BME280;75903;52.510;13.396;2024-02-21T02:00:01;101435.28;;;10.12;72.94
85499;BME280;75903;52.510;13.396;2024-02-21T02:02:28;101381.69;;;9.76;72.66
85499;BME280;75903;52.510;13.396;2024-02-21T02:04:54;101439.03;;;10.08;73.00
85499;BME280;75903;52.510;13.396;2024-02-21T02:07:19;101430.97;;;10.11;72.86
85499;BME280;75903;52.510;13.396;2024-02-21T02:09:44;101425.69;;;10.24;72.71
85499;BME280;75903;52.510;13.396;2024-02-21T02:12:10;101419.13;;;10.29;72.11
85499;BME280;75903;52.510;13.396;2024-02-21T02:14:35;101414.50;;;10.20;72.24
85499;BME280;75903;52.510;13.396;2024-02-21T02:17:01;101418.94;;;10.20;72.94
85499;BME280;75903;52.510;13.396;2024-02-21T02:19:26;101411.13;;;10.18;73.86
85499;BME280;75903;52.510;13.396;2024-02-21T02:21:56;101414.94;;;10.14;73.76
85499;BME280;75903;52.510;13.396;2024-02-21T02:24:25;101394.94;;;9.99;74.45
85499;BME280;75903;52.510;13.396;2024-02-21T02:26:53;101394.94;;;9.87;75.34
85499;BME280;75903;52.510;13.396;2024-02-21T02:29:18;101408.19;;;10.10;75.02
85499;BME280;75903;52.510;13.396;2024-02-21T02:31:44;101408.72;;;10.15;75.23
85499;BME280;75903;52.510;13.396;2024-02-21T02:34:09;101400.59;;;10.18;75.00
85499;BME280;75903;52.510;13.396;2024-02-21T02:36:35;101401.44;;;10.19;75.39
85499;BME280;75903;52.510;13.396;2024-02-21T02:39:01;101401.06;;;10.00;76.16
85499;BME280;75903;52.510;13.396;2024-02-21T02:41:26;101389.91;;;9.96;76.36
85499;BME280;75903;52.510;13.396;2024-02-21T02:43:52;101402.41;;;10.05;76.59
85499;BME280;75903;52.510;13.396;2024-02-21T02:46:17;101391.75;;;10.07;77.29
85499;BME280;75903;52.510;13.396;2024-02-21T02:48:42;101396.84;;;9.97;77.56
85499;BME280;75903;52.510;13.396;2024-02-21T02:51:08;101396.94;;;9.96;77.43
85499;BME280;75903;52.510;13.396;2024-02-21T02:53:33;101387.53;;;10.04;77.67
85499;BME280;75903;52.510;13.396;2024-02-21T02:55:58;101389.91;;;9.96;77.92
85499;BME280;75903;52.510;13.396;2024-02-21T02:58:24;101381.53;;;10.02;77.88
85499;BME280;75903;52.510;13.396;2024-02-21T03:00:49;101385.34;;;9.98;78.06
85499;BME280;75903;52.510;13.396;2024-02-21T03:03:14;101375.34;;;10.03;77.86
85499;BME280;75903;52.510;13.396;2024-02-21T03:05:40;101370.44;;;9.86;79.22
85499;BME280;75903;52.510;13.396;2024-02-21T03:08:05;101363.41;;;9.74;79.99
85499;BME280;75903;52.510;13.396;2024-02-21T03:10:33;101373.25;;;9.83;79.88
85499;BME280;75903;52.510;13.396;2024-02-21T03:12:58;101372.22;;;9.86;80.10
85499;BME280;75903;52.510;13.396;2024-02-21T03:15:24;101334.44;;;9.61;80.45
85499;BME280;75903;52.510;13.396;2024-02-21T03:17:49;101353.66;;;9.87;80.52
85499;BME280;75903;52.510;13.396;2024-02-21T03:20:15;101354.41;;;9.89;80.19
85499;BME280;75903;52.510;13.396;2024-02-21T03:22:40;101342.09;;;9.90;80.86
85499;BME280;75903;52.510;13.396;2024-02-21T03:25:06;101343.38;;;9.84;80.96
85499;BME280;75903;52.510;13.396;2024-02-21T03:27:32;101344.16;;;9.97;80.21
85499;BME280;75903;52.510;13.396;2024-02-21T03:29:57;101344.59;;;9.91;80.51
85499;BME280;75903;52.510;13.396;2024-02-21T03:32:23;101345.22;;;9.95;81.05
85499;BME280;75903;52.510;13.396;2024-02-21T03:34:48;101344.84;;;9.88;81.42
85499;BME280;75903;52.510;13.396;2024-02-21T03:37:13;101339.03;;;9.83;81.54
85499;BME280;75903;52.510;13.396;2024-02-21T03:39:39;101347.19;;;9.55;82.82
85499;BME280;75903;52.510;13.396;2024-02-21T03:42:05;101326.88;;;9.57;82.34
85499;BME280;75903;52.510;13.396;2024-02-21T03:44:31;101341.81;;;9.69;82.98
85499;BME280;75903;52.510;13.396;2024-02-21T03:46:57;101343.41;;;9.59;83.47
85499;BME280;75903;52.510;13.396;2024-02-21T03:49:22;101336.78;;;9.66;83.28
85499;BME280;75903;52.510;13.396;2024-02-21T03:51:48;101319.81;;;9.70;83.12
85499;BME280;75903;52.510;13.396;2024-02-21T03:54:13;101315.00;;;9.51;83.09
85499;BME280;75903;52.510;13.396;2024-02-21T03:56:39;101331.44;;;9.42;83.70
85499;BME280;75903;52.510;13.396;2024-02-21T03:59:06;101326.13;;;9.55;83.74
85499;BME280;75903;52.510;13.396;2024-02-21T04:01:31;101319.53;;;9.37;84.51
85499;BME280;75903;52.510;13.396;2024-02-21T04:03:56;101319.44;;;9.38;85.09
85499;BME280;75903;52.510;13.396;2024-02-21T04:06:22;101322.28;;;9.23;85.04
85499;BME280;75903;52.510;13.396;2024-02-21T04:08:47;101321.09;;;9.39;84.45
85499;BME280;75903;52.510;13.396;2024-02-21T04:11:12;101312.91;;;9.31;84.91
85499;BME280;75903;52.510;13.396;2024-02-21T04:13:38;101307.84;;;9.41;85.18
85499;BME280;75903;52.510;13.396;2024-02-21T04:16:03;101303.00;;;9.35;84.96
85499;BME280;75903;52.510;13.396;2024-02-21T04:18:30;101286.22;;;9.25;84.95
85499;BME280;75903;52.510;13.396;2024-02-21T04:20:56;101288.31;;;9.32;85.25
85499;BME280;75903;52.510;13.396;2024-02-21T04:23:21;101279.75;;;9.41;84.91
85499;BME280;75903;52.510;13.396;2024-02-21T04:25:46;101281.03;;;9.36;84.93
85499;BME280;75903;52.510;13.396;2024-02-21T04:28:12;101282.06;;;9.46;84.17
85499;BME280;75903;52.510;13.396;2024-02-21T04:30:37;101267.94;;;9.47;84.29
85499;BME280;75903;52.510;13.396;2024-02-21T04:33:03;101274.03;;;9.60;83.78
85499;BME280;75903;52.510;13.396;2024-02-21T04:35:28;101266.16;;;9.60;83.52
85499;BME280;75903;52.510;13.396;2024-02-21T04:37:53;101261.31;;;9.54;84.06
85499;BME280;75903;52.510;13.396;2024-02-21T04:40:19;101244.28;;;9.47;83.86
85499;BME280;75903;52.510;13.396;2024-02-21T04:42:44;101241.81;;;9.33;84.82
85499;BME280;75903;52.510;13.396;2024-02-21T04:45:10;101214.22;;;9.38;84.08
85499;BME280;75903;52.510;13.396;2024-02-21T04:47:35;101229.94;;;9.51;83.50
85499;BME280;75903;52.510;13.396;2024-02-21T04:50:01;101235.22;;;9.51;84.03
85499;BME280;75903;52.510;13.396;2024-02-21T04:52:26;101235.56;;;9.34;84.10
85499;BME280;75903;52.510;13.396;2024-02-21T04:54:51;101238.09;;;9.35;83.89
85499;BME280;75903;52.510;13.396;2024-02-21T04:57:17;101232.09;;;9.33;84.44
85499;BME280;75903;52.510;13.396;2024-02-21T04:59:49;101230.09;;;9.37;83.88
85499;BME280;75903;52.510;13.396;2024-02-21T05:02:14;101201.75;;;9.17;84.36
85499;BME280;75903;52.510;13.396;2024-02-21T05:04:39;101195.34;;;9.08;84.58
85499;BME280;75903;52.510;13.396;2024-02-21T05:07:07;101227.28;;;9.27;84.69
85499;BME280;75903;52.510;13.396;2024-02-21T05:09:32;101223.72;;;9.28;84.52
85499;BME280;75903;52.510;13.396;2024-02-21T05:11:57;101223.16;;;9.36;84.28
85499;BME280;75903;52.510;13.396;2024-02-21T05:14:26;101221.75;;;9.43;83.81
85499;BME280;75903;52.510;13.396;2024-02-21T05:16:54;101224.50;;;9.41;84.24
85499;BME280;75903;52.510;13.396;2024-02-21T05:19:20;101226.84;;;9.33;83.84
85499;BME280;75903;52.510;13.396;2024-02-21T05:21:45;101220.94;;;9.42;83.99
85499;BME280;75903;52.510;13.396;2024-02-21T05:24:11;101205.91;;;9.32;83.81
85499;BME280;75903;52.510;13.396;2024-02-21T05:26:36;101221.56;;;9.46;83.76
85499;BME280;75903;52.510;13.396;2024-02-21T05:29:02;101221.03;;;9.41;83.79
85499;BME280;75903;52.510;13.396;2024-02-21T05:31:43;101218.94;;;9.46;83.14
85499;BME280;75903;52.510;13.396;2024-02-21T05:34:20;101214.09;;;9.40;83.90
85499;BME280;75903;52.510;13.396;2024-02-21T05:36:46;101220.13;;;9.29;83.71
85499;BME280;75903;52.510;13.396;2024-02-21T05:39:12;101195.09;;;9.24;83.70
85499;BME280;75903;52.510;13.396;2024-02-21T05:41:38;101227.47;;;9.37;83.48
85499;BME280;75903;52.510;13.396;2024-02-21T05:44:03;101203.28;;;9.32;83.80
85499;BME280;75903;52.510;13.396;2024-02-21T05:46:29;101212.53;;;9.37;84.54
85499;BME280;75903;52.510;13.396;2024-02-21T05:48:54;101211.78;;;9.48;84.75
85499;BME280;75903;52.510;13.396;2024-02-21T05:51:20;101208.28;;;9.47;83.96
85499;BME280;75903;52.510;13.396;2024-02-21T05:53:45;101215.78;;;9.41;83.80
85499;BME280;75903;52.510;13.396;2024-02-21T05:56:11;101207.72;;;9.55;82.79
85499;BME280;75903;52.510;13.396;2024-02-21T05:58:37;101194.72;;;9.41;83.46
85499;BME280;75903;52.510;13.396;2024-02-21T06:01:02;101137.69;;;9.05;84.25
85499;BME280;75903;52.510;13.396;2024-02-21T06:03:29;101198.91;;;9.56;83.51
85499;BME280;75903;52.510;13.396;2024-02-21T06:05:55;101199.22;;;9.51;83.58
85499;BME280;75903;52.510;13.396;2024-02-21T06:08:28;101195.38;;;9.44;83.94
85499;BME280;75903;52.510;13.396;2024-02-21T06:10:54;101200.94;;;9.40;84.08
85499;BME280;75903;52.510;13.396;2024-02-21T06:13:31;101198.97;;;10.49;89.88
85499;BME280;75903;52.510;13.396;2024-02-21T06:16:06;101191.13;;;11.04;79.50
85499;BME280;75903;52.510;13.396;2024-02-21T06:18:36;101186.31;;;11.09;77.14
85499;BME280;75903;52.510;13.396;2024-02-21T06:21:14;101185.16;;;10.34;79.46
85499;BME280;75903;52.510;13.396;2024-02-21T06:24:38;101181.25;;;9.93;80.95
85499;BME280;75903;52.510;13.396;2024-02-21T06:27:08;101168.56;;;9.63;82.38
85499;BME280;75903;52.510;13.396;2024-02-21T06:29:39;101199.63;;;9.58;82.60
85499;BME280;75903;52.510;13.396;2024-02-21T06:32:19;101185.69;;;9.69;82.75
85499;BME280;75903;52.510;13.396;2024-02-21T06:34:51;101185.75;;;9.56;82.61
85499;BME280;75903;52.510;13.396;2024-02-21T06:37:16;101187.97;;;9.49;83.24
85499;BME280;75903;52.510;13.396;2024-02-21T06:39:45;101192.94;;;9.41;83.34
85499;BME280;75903;52.510;13.396;2024-02-21T06:42:13;101189.31;;;9.55;83.39
85499;BME280;75903;52.510;13.396;2024-02-21T06:47:30;101189.31;;;9.55;82.80
85499;BME280;75903;52.510;13.396;2024-02-21T06:49:55;101190.19;;;9.43;83.89
85499;BME280;75903;52.510;13.396;2024-02-21T06:52:21;101185.91;;;9.42;83.19
85499;BME280;75903;52.510;13.396;2024-02-21T06:54:47;101188.88;;;9.61;82.56
85499;BME280;75903;52.510;13.396;2024-02-21T06:57:13;101176.28;;;9.53;82.64
85499;BME280;75903;52.510;13.396;2024-02-21T06:59:41;101170.16;;;9.53;82.57
85499;BME280;75903;52.510;13.396;2024-02-21T07:02:06;101178.78;;;9.55;82.37
85499;BME280;75903;52.510;13.396;2024-02-21T07:04:32;101193.84;;;9.53;82.93
85499;BME280;75903;52.510;13.396;2024-02-21T07:06:57;101191.06;;;9.67;82.65
85499;BME280;75903;52.510;13.396;2024-02-21T07:09:22;101184.19;;;9.77;81.77
85499;BME280;75903;52.510;13.396;2024-02-21T07:11:48;101196.84;;;9.72;82.30
85499;BME280;75903;52.510;13.396;2024-02-21T07:14:18;101195.44;;;9.79;82.11
85499;BME280;75903;52.510;13.396;2024-02-21T07:16:43;101189.31;;;9.79;82.02
85499;BME280;75903;52.510;13.396;2024-02-21T07:19:09;101194.94;;;9.74;82.16
85499;BME280;75903;52.510;13.396;2024-02-21T07:21:34;101189.72;;;9.85;81.97
85499;BME280;75903;52.510;13.396;2024-02-21T07:24:00;101191.97;;;9.79;82.28
85499;BME280;75903;52.510;13.396;2024-02-21T07:26:25;101172.19;;;9.73;81.71
85499;BME280;75903;52.510;13.396;2024-02-21T07:28:50;101186.97;;;9.63;81.93
85499;BME280;75903;52.510;13.396;2024-02-21T07:31:16;101169.06;;;9.68;81.44
85499;BME280;75903;52.510;13.396;2024-02-21T07:33:41;101188.44;;;9.67;82.05
85499;BME280;75903;52.510;13.396;2024-02-21T07:36:09;101177.69;;;9.70;81.62
85499;BME280;75903;52.510;13.396;2024-02-21T07:38:35;101186.25;;;9.85;81.59
85499;BME280;75903;52.510;13.396;2024-02-21T07:41:00;101178.88;;;9.90;81.13
85499;BME280;75903;52.510;13.396;2024-02-21T07:43:26;101183.72;;;9.83;81.20
85499;BME280;75903;52.510;13.396;2024-02-21T07:45:52;101180.81;;;9.75;81.21
85499;BME280;75903;52.510;13.396;2024-02-21T07:48:18;101186.31;;;9.72;81.42
85499;BME280;75903;52.510;13.396;2024-02-21T07:50:44;101161.34;;;9.54;82.10
85499;BME280;75903;52.510;13.396;2024-02-21T07:53:10;101180.41;;;9.69;82.21
85499;BME280;75903;52.510;13.396;2024-02-21T07:55:35;101187.66;;;9.78;81.63
85499;BME280;75903;52.510;13.396;2024-02-21T07:58:00;101153.44;;;9.54;81.04
85499;BME280;75903;52.510;13.396;2024-02-21T08:00:26;101178.16;;;9.64;81.21
85499;BME280;75903;52.510;13.396;2024-02-21T08:02:51;101147.00;;;9.58;81.27
85499;BME280;75903;52.510;13.396;2024-02-21T08:05:17;101184.19;;;9.77;80.88
85499;BME280;75903;52.510;13.396;2024-02-21T08:07:43;101177.53;;;9.84;80.36
85499;BME280;75903;52.510;13.396;2024-02-21T08:10:08;101176.13;;;9.91;80.65
85499;BME280;75903;52.510;13.396;2024-02-21T08:12:34;101173.19;;;9.83;80.01
85499;BME280;75903;52.510;13.396;2024-02-21T08:15:00;101173.72;;;9.88;80.41
85499;BME280;75903;52.510;13.396;2024-02-21T08:17:25;101172.91;;;9.99;79.70
85499;BME280;75903;52.510;13.396;2024-02-21T08:19:50;101170.16;;;10.00;79.50
85499;BME280;75903;52.510;13.396;2024-02-21T08:22:16;101171.84;;;10.01;80.08
85499;BME280;75903;52.510;13.396;2024-02-21T08:24:41;101171.41;;;10.07;78.98
85499;BME280;75903;52.510;13.396;2024-02-21T08:27:07;101170.97;;;10.13;79.25
85499;BME280;75903;52.510;13.396;2024-02-21T08:29:32;101168.63;;;10.09;79.07
85499;BME280;75903;52.510;13.396;2024-02-21T08:31:58;101163.34;;;10.21;78.85
85499;BME280;75903;52.510;13.396;2024-02-21T08:34:23;101164.66;;;10.27;78.36
85499;BME280;75903;52.510;13.396;2024-02-21T08:36:48;101168.88;;;10.29;78.32
85499;BME280;75903;52.510;13.396;2024-02-21T08:39:14;101166.72;;;10.34;78.22
85499;BME280;75903;52.510;13.396;2024-02-21T08:41:42;101159.78;;;10.33;77.58
85499;BME280;75903;52.510;13.396;2024-02-21T08:44:07;101157.16;;;10.44;77.80
85499;BME280;75903;52.510;13.396;2024-02-21T08:46:32;101159.06;;;10.42;77.19
85499;BME280;75903;52.510;13.396;2024-02-21T08:48:58;101161.69;;;10.42;77.54
85499;BME280;75903;52.510;13.396;2024-02-21T08:51:23;101164.59;;;10.39;77.48
85499;BME280;75903;52.510;13.396;2024-02-21T08:53:49;101169.34;;;10.34;77.20
85499;BME280;75903;52.510;13.396;2024-02-21T08:56:19;101164.78;;;10.36;77.11
85499;BME280;75903;52.510;13.396;2024-02-21T08:58:44;101172.50;;;10.51;77.36
85499;BME280;75903;52.510;13.396;2024-02-21T09:01:09;101168.78;;;10.53;77.35
85499;BME280;75903;52.510;13.396;2024-02-21T09:03:38;101156.34;;;10.55;76.84
85499;BME280;75903;52.510;13.396;2024-02-21T09:06:07;101173.72;;;10.69;76.57
85499;BME280;75903;52.510;13.396;2024-02-21T09:08:33;101163.78;;;10.72;76.62
85499;BME280;75903;52.510;13.396;2024-02-21T09:11:01;101166.03;;;10.55;76.55
85499;BME280;75903;52.510;13.396;2024-02-21T09:13:27;101172.75;;;10.70;76.52
85499;BME280;75903;52.510;13.396;2024-02-21T09:15:53;101173.59;;;10.59;76.17
85499;BME280;75903;52.510;13.396;2024-02-21T09:18:18;101170.13;;;10.70;76.04
85499;BME280;75903;52.510;13.396;2024-02-21T09:20:44;101162.22;;;10.81;75.43
85499;BME280;75903;52.510;13.396;2024-02-21T09:23:10;101164.75;;;10.82;75.04
85499;BME280;75903;52.510;13.396;2024-02-21T09:25:35;101162.94;;;10.94;75.12
85499;BME280;75903;52.510;13.396;2024-02-21T09:28:02;101156.94;;;10.92;75.07
85499;BME280;75903;52.510;13.396;2024-02-21T09:30:28;101158.13;;;10.88;74.91
85499;BME280;75903;52.510;13.396;2024-02-21T09:32:53;101145.69;;;11.01;75.03
85499;BME280;75903;52.510;13.396;2024-02-21T09:35:19;101151.22;;;10.87;74.53
85499;BME280;75903;52.510;13.396;2024-02-21T09:37:47;101141.22;;;11.01;74.18
85499;BME280;75903;52.510;13.396;2024-02-21T09:40:15;101114.16;;;10.88;73.70
85499;BME280;75903;52.510;13.396;2024-02-21T09:42:41;101141.50;;;10.98;73.95
85499;BME280;75903;52.510;13.396;2024-02-21T09:45:25;101134.44;;;10.99;74.38
85499;BME280;75903;52.510;13.396;2024-02-21T09:50:22;101130.28;;;11.28;73.62
85499;BME280;75903;52.510;13.396;2024-02-21T09:52:51;101131.72;;;11.32;72.62
85499;BME280;75903;52.510;13.396;2024-02-21T09:55:18;101133.38;;;11.33;72.97
85499;BME280;75903;52.510;13.396;2024-02-21T09:57:44;101128.47;;;11.40;72.72
85499;BME280;75903;52.510;13.396;2024-02-21T10:00:10;101134.38;;;11.32;72.78
85499;BME280;75903;52.510;13.396;2024-02-21T10:02:36;101136.25;;;11.41;71.89
85499;BME280;75903;52.510;13.396;2024-02-21T10:05:02;101134.31;;;11.43;72.26
85499;BME280;75903;52.510;13.396;2024-02-21T10:07:30;101135.53;;;11.39;71.99
85499;BME280;75903;52.510;13.396;2024-02-21T10:10:02;101126.94;;;11.26;72.58
85499;BME280;75903;52.510;13.396;2024-02-21T10:12:28;101133.88;;;11.38;72.00
85499;BME280;75903;52.510;13.396;2024-02-21T10:15:03;101137.09;;;11.42;72.59
85499;BME280;75903;52.510;13.396;2024-02-21T10:17:29;101125.28;;;11.25;72.26
85499;BME280;75903;52.510;13.396;2024-02-21T10:19:55;101115.91;;;11.32;71.97
85499;BME280;75903;52.510;13.396;2024-02-21T10:22:20;101113.00;;;11.35;71.56
85499;BME280;75903;52.510;13.396;2024-02-21T10:24:46;101122.31;;;11.50;70.82
85499;BME280;75903;52.510;13.396;2024-02-21T10:27:12;101135.25;;;11.53;70.70
85499;BME280;75903;52.510;13.396;2024-02-21T10:29:38;101123.63;;;11.56;71.25
85499;BME280;75903;52.510;13.396;2024-02-21T10:32:07;101131.94;;;11.40;71.99
85499;BME280;75903;52.510;13.396;2024-02-21T10:34:34;101118.13;;;11.48;70.91
85499;BME280;75903;52.510;13.396;2024-02-21T10:37:03;101142.72;;;11.48;71.83
85499;BME280;75903;52.510;13.396;2024-02-21T10:39:33;101140.31;;;11.56;71.03
85499;BME280;75903;52.510;13.396;2024-02-21T10:42:01;101116.81;;;11.42;70.93
85499;BME280;75903;52.510;13.396;2024-02-21T10:44:32;101132.59;;;11.64;71.13
85499;BME280;75903;52.510;13.396;2024-02-21T10:46:58;101137.69;;;11.45;71.61
85499;BME280;75903;52.510;13.396;2024-02-21T10:49:26;101124.34;;;11.58;70.97
85499;BME280;75903;52.510;13.396;2024-02-21T10:52:02;101118.34;;;11.56;72.06
85499;BME280;75903;52.510;13.396;2024-02-21T10:55:10;101114.63;;;11.47;72.33
85499;BME280;75903;52.510;13.396;2024-02-21T10:57:38;101099.31;;;11.41;71.73
85499;BME280;75903;52.510;13.396;2024-02-21T11:00:05;101118.69;;;11.62;72.20
85499;BME280;75903;52.510;13.396;2024-02-21T11:02:33;101117.84;;;11.62;71.93
85499;BME280;75903;52.510;13.396;2024-02-21T11:04:59;101100.84;;;11.55;72.06
85499;BME280;75903;52.510;13.396;2024-02-21T11:07:26;101121.31;;;11.73;71.78
85499;BME280;75903;52.510;13.396;2024-02-21T11:09:52;101104.78;;;11.60;72.91
85499;BME280;75903;52.510;13.396;2024-02-21T11:12:23;101098.25;;;11.75;72.86
85499;BME280;75903;52.510;13.396;2024-02-21T11:14:48;101091.31;;;11.74;73.40
85499;BME280;75903;52.510;13.396;2024-02-21T11:17:15;101074.75;;;11.93;72.64
85499;BME280;75903;52.510;13.396;2024-02-21T11:19:41;101081.78;;;12.03;71.80
85499;BME280;75903;52.510;13.396;2024-02-21T11:22:14;101071.25;;;12.13;71.66
85499;BME280;75903;52.510;13.396;2024-02-21T11:24:42;101064.19;;;12.13;71.36
85499;BME280;75903;52.510;13.396;2024-02-21T11:27:14;101074.56;;;12.05;71.55
85499;BME280;75903;52.510;13.396;2024-02-21T11:29:44;101061.78;;;12.10;71.37
85499;BME280;75903;52.510;13.396;2024-02-21T11:32:10;101054.78;;;12.00;71.29
85499;BME280;75903;52.510;13.396;2024-02-21T11:34:38;101048.69;;;12.30;70.15
85499;BME280;75903;52.510;13.396;2024-02-21T11:37:13;101045.81;;;12.42;70.10
85499;BME280;75903;52.510;13.396;2024-02-21T11:39:42;101053.13;;;12.50;69.37
85499;BME280;75903;52.510;13.396;2024-02-21T11:42:08;101044.41;;;12.38;69.21
85499;BME280;75903;52.510;13.396;2024-02-21T11:44:37;101041.34;;;12.33;68.69
85499;BME280;75903;52.510;13.396;2024-02-21T11:47:07;101011.97;;;12.36;69.44
85499;BME280;75903;52.510;13.396;2024-02-21T11:49:38;101025.00;;;12.58;68.10
85499;BME280;75903;52.510;13.396;2024-02-21T11:52:05;101018.94;;;12.77;67.99
85499;BME280;75903;52.510;13.396;2024-02-21T11:54:30;100985.13;;;12.71;67.40
85499;BME280;75903;52.510;13.396;2024-02-21T11:56:56;101006.03;;;12.93;67.00
85499;BME280;75903;52.510;13.396;2024-02-21T11:59:22;101011.22;;;13.04;67.30
85499;BME280;75903;52.510;13.396;2024-02-21T12:01:48;101007.34;;;13.18;68.36
85499;BME280;75903;52.510;13.396;2024-02-21T12:04:14;101007.78;;;13.32;66.24
85499;BME280;75903;52.510;13.396;2024-02-21T12:06:43;101005.94;;;13.23;64.11
85499;BME280;75903;52.510;13.396;2024-02-21T12:09:08;100994.41;;;13.34;65.27
85499;BME280;75903;52.510;13.396;2024-02-21T12:11:36;100991.59;;;13.35;65.30
85499;BME280;75903;52.510;13.396;2024-02-21T12:14:03;100981.16;;;13.43;64.08
85499;BME280;75903;52.510;13.396;2024-02-21T12:16:30;100982.84;;;13.44;64.31
85499;BME280;75903;52.510;13.396;2024-02-21T12:18:57;100976.84;;;13.42;64.71
85499;BME280;75903;52.510;13.396;2024-02-21T12:21:32;100978.50;;;13.62;63.62
85499;BME280;75903;52.510;13.396;2024-02-21T12:24:00;100966.63;;;13.57;64.61
85499;BME280;75903;52.510;13.396;2024-02-21T12:26:25;100959.09;;;13.62;64.62
85499;BME280;75903;52.510;13.396;2024-02-21T12:28:53;100953.63;;;13.73;66.71
85499;BME280;75903;52.510;13.396;2024-02-21T12:31:20;100956.31;;;14.10;65.60
85499;BME280;75903;52.510;13.396;2024-02-21T12:33:46;100948.81;;;15.04;66.89
85499;BME280;75903;52.510;13.396;2024-02-21T12:36:12;100939.31;;;15.54;60.09
85499;BME280;75903;52.510;13.396;2024-02-21T12:38:37;100932.16;;;15.37;59.12
85499;BME280;75903;52.510;13.396;2024-02-21T12:41:03;100935.97;;;15.17;59.13
85499;BME280;75903;52.510;13.396;2024-02-21T12:43:28;100929.69;;;14.83;59.29
85499;BME280;75903;52.510;13.396;2024-02-21T12:45:54;100937.88;;;14.18;61.78
85499;BME280;75903;52.510;13.396;2024-02-21T12:48:19;100929.38;;;13.77;63.20